Pays
Station

 

Conditions  météo  pour  Toul/Rosieres  -  France    France

  
13 °C
    
 
 

METAR pour Toul/Rosieres :

LFSL 201000Z AUTO 32005KT 280V350 9999 SCT018 OVC031 13/09 Q1013 NOSIG

 

Voici le bulletin pour Toul/Rosieres - France.
 
Le bulletin a été fait il y a 33 minutes, à 10:00 UTC .
Le vent soufflait à la vitesse de 2.6 mètres par seconde de Nord-ouest (320°), variant entre Ouest (280°) et Nord (350°).
 
La température était de 13 °C, avec un point de rosée à 9 °C.
La pression atmosphérique était de 1013 hPa.
L'humidité relative était de 76.7%.
 
Il y avait 3 à 4/8ème de nébulosité à une hauteur de 549 mètres. Le ciel était nuageux à partir d'une hauteur de 945 mètres
 
La visibilité globale était de supérieure à 10 kilomètres.
 

 
 
 

Pays :   A   B   C   D   E   F   G   H   I   J   K   L   M   N   O   P   Q   R   S   T   U   V   W   Y   Z

 

Partenaires :  Info Météo avec Met'info
Météo Marine avec MeteoMarine.net
Infos Site  |  Infos Légales  |  Crédits  |  Confidentialité
Contactez-nous  |  Ajouter aux favoris
© 2013-2019 METAR - Tous droits réservés